sensor_id;sensor_type;location;lat;lon;timestamp;P1;durP1;ratioP1;P2;durP2;ratioP2
82372;SDS011;72000;42.828;23.382;2024-03-17T00:02:05;10.55;;;3.97;;
82372;SDS011;72000;42.828;23.382;2024-03-17T00:04:31;12.95;;;5.00;;
82372;SDS011;72000;42.828;23.382;2024-03-17T00:06:57;9.57;;;4.38;;
82372;SDS011;72000;42.828;23.382;2024-03-17T00:09:22;12.85;;;5.40;;
82372;SDS011;72000;42.828;23.382;2024-03-17T00:11:49;14.75;;;5.80;;
82372;SDS011;72000;42.828;23.382;2024-03-17T00:14:15;15.65;;;6.20;;
82372;SDS011;72000;42.828;23.382;2024-03-17T00:16:41;13.30;;;5.55;;
82372;SDS011;72000;42.828;23.382;2024-03-17T00:19:06;12.85;;;5.78;;
82372;SDS011;72000;42.828;23.382;2024-03-17T00:21:32;14.38;;;5.75;;
82372;SDS011;72000;42.828;23.382;2024-03-17T00:23:57;12.85;;;5.65;;
82372;SDS011;72000;42.828;23.382;2024-03-17T00:26:23;13.40;;;5.85;;
82372;SDS011;72000;42.828;23.382;2024-03-17T00:28:49;11.93;;;5.00;;
82372;SDS011;72000;42.828;23.382;2024-03-17T00:31:16;11.48;;;5.32;;
82372;SDS011;72000;42.828;23.382;2024-03-17T00:33:42;10.98;;;5.40;;
82372;SDS011;72000;42.828;23.382;2024-03-17T00:36:07;10.50;;;5.40;;
82372;SDS011;72000;42.828;23.382;2024-03-17T00:38:33;9.93;;;4.72;;
82372;SDS011;72000;42.828;23.382;2024-03-17T00:40:59;11.77;;;4.38;;
82372;SDS011;72000;42.828;23.382;2024-03-17T00:43:24;10.38;;;4.20;;
82372;SDS011;72000;42.828;23.382;2024-03-17T00:45:53;9.35;;;4.65;;
82372;SDS011;72000;42.828;23.382;2024-03-17T00:48:19;10.75;;;4.72;;
82372;SDS011;72000;42.828;23.382;2024-03-17T00:50:44;11.27;;;5.13;;
82372;SDS011;72000;42.828;23.382;2024-03-17T00:53:10;10.90;;;5.05;;
82372;SDS011;72000;42.828;23.382;2024-03-17T00:55:36;10.00;;;4.80;;
82372;SDS011;72000;42.828;23.382;2024-03-17T00:58:02;10.13;;;5.10;;
82372;SDS011;72000;42.828;23.382;2024-03-17T01:00:28;9.73;;;4.70;;
82372;SDS011;72000;42.828;23.382;2024-03-17T01:02:54;11.98;;;4.90;;
82372;SDS011;72000;42.828;23.382;2024-03-17T01:05:19;9.82;;;4.30;;
82372;SDS011;72000;42.828;23.382;2024-03-17T01:07:45;8.65;;;4.40;;
82372;SDS011;72000;42.828;23.382;2024-03-17T01:10:12;10.60;;;4.90;;
82372;SDS011;72000;42.828;23.382;2024-03-17T01:12:38;9.20;;;4.57;;
82372;SDS011;72000;42.828;23.382;2024-03-17T01:15:05;9.25;;;4.43;;
82372;SDS011;72000;42.828;23.382;2024-03-17T01:17:31;9.50;;;3.92;;
82372;SDS011;72000;42.828;23.382;2024-03-17T01:19:56;9.63;;;3.90;;
82372;SDS011;72000;42.828;23.382;2024-03-17T01:22:22;9.68;;;4.20;;
82372;SDS011;72000;42.828;23.382;2024-03-17T01:24:47;9.05;;;4.15;;
82372;SDS011;72000;42.828;23.382;2024-03-17T01:27:13;8.45;;;4.00;;
82372;SDS011;72000;42.828;23.382;2024-03-17T01:29:41;8.65;;;4.00;;
82372;SDS011;72000;42.828;23.382;2024-03-17T01:32:10;7.13;;;3.80;;
82372;SDS011;72000;42.828;23.382;2024-03-17T01:34:39;8.32;;;3.83;;
82372;SDS011;72000;42.828;23.382;2024-03-17T01:37:05;7.18;;;3.38;;
82372;SDS011;72000;42.828;23.382;2024-03-17T01:39:31;7.38;;;3.80;;
82372;SDS011;72000;42.828;23.382;2024-03-17T01:41:58;7.47;;;3.17;;
82372;SDS011;72000;42.828;23.382;2024-03-17T01:46:53;6.32;;;3.13;;
82372;SDS011;72000;42.828;23.382;2024-03-17T01:49:20;7.70;;;3.40;;
82372;SDS011;72000;42.828;23.382;2024-03-17T01:51:46;6.53;;;3.33;;
82372;SDS011;72000;42.828;23.382;2024-03-17T01:54:12;7.28;;;3.60;;
82372;SDS011;72000;42.828;23.382;2024-03-17T01:56:39;8.38;;;3.17;;
82372;SDS011;72000;42.828;23.382;2024-03-17T01:59:05;6.70;;;3.15;;
82372;SDS011;72000;42.828;23.382;2024-03-17T02:01:31;7.80;;;3.20;;
82372;SDS011;72000;42.828;23.382;2024-03-17T02:03:57;8.43;;;3.25;;
82372;SDS011;72000;42.828;23.382;2024-03-17T02:06:23;7.25;;;2.95;;
82372;SDS011;72000;42.828;23.382;2024-03-17T02:08:53;7.47;;;3.10;;
82372;SDS011;72000;42.828;23.382;2024-03-17T02:11:26;5.50;;;2.78;;
82372;SDS011;72000;42.828;23.382;2024-03-17T02:13:58;7.70;;;3.30;;
82372;SDS011;72000;42.828;23.382;2024-03-17T02:16:25;8.02;;;3.40;;
82372;SDS011;72000;42.828;23.382;2024-03-17T02:18:54;8.18;;;3.30;;
82372;SDS011;72000;42.828;23.382;2024-03-17T02:21:21;7.25;;;3.35;;
82372;SDS011;72000;42.828;23.382;2024-03-17T02:23:50;7.50;;;3.25;;
82372;SDS011;72000;42.828;23.382;2024-03-17T02:26:19;6.78;;;3.10;;
82372;SDS011;72000;42.828;23.382;2024-03-17T02:28:45;7.00;;;3.15;;
82372;SDS011;72000;42.828;23.382;2024-03-17T02:33:37;7.15;;;2.95;;
82372;SDS011;72000;42.828;23.382;2024-03-17T02:36:04;6.65;;;3.33;;
82372;SDS011;72000;42.828;23.382;2024-03-17T02:38:32;7.18;;;3.50;;
82372;SDS011;72000;42.828;23.382;2024-03-17T02:41:19;8.30;;;3.90;;
82372;SDS011;72000;42.828;23.382;2024-03-17T02:43:45;6.82;;;3.22;;
82372;SDS011;72000;42.828;23.382;2024-03-17T02:46:11;8.68;;;3.75;;
82372;SDS011;72000;42.828;23.382;2024-03-17T02:48:38;8.23;;;3.72;;
82372;SDS011;72000;42.828;23.382;2024-03-17T02:51:10;7.30;;;3.42;;
82372;SDS011;72000;42.828;23.382;2024-03-17T02:53:36;6.90;;;3.10;;
82372;SDS011;72000;42.828;23.382;2024-03-17T02:56:02;6.07;;;3.05;;
82372;SDS011;72000;42.828;23.382;2024-03-17T02:58:27;7.32;;;3.50;;
82372;SDS011;72000;42.828;23.382;2024-03-17T03:00:53;7.25;;;3.47;;
82372;SDS011;72000;42.828;23.382;2024-03-17T03:03:18;7.65;;;3.00;;
82372;SDS011;72000;42.828;23.382;2024-03-17T03:05:45;7.60;;;3.00;;
82372;SDS011;72000;42.828;23.382;2024-03-17T03:08:11;6.97;;;2.97;;
82372;SDS011;72000;42.828;23.382;2024-03-17T03:10:36;7.32;;;3.08;;
82372;SDS011;72000;42.828;23.382;2024-03-17T03:13:02;7.43;;;3.25;;
82372;SDS011;72000;42.828;23.382;2024-03-17T03:15:30;6.90;;;2.92;;
82372;SDS011;72000;42.828;23.382;2024-03-17T03:17:57;7.07;;;3.33;;
82372;SDS011;72000;42.828;23.382;2024-03-17T03:20:23;7.25;;;3.35;;
82372;SDS011;72000;42.828;23.382;2024-03-17T03:22:48;8.07;;;3.17;;
82372;SDS011;72000;42.828;23.382;2024-03-17T03:25:14;8.05;;;3.30;;
82372;SDS011;72000;42.828;23.382;2024-03-17T03:27:39;6.22;;;3.00;;
82372;SDS011;72000;42.828;23.382;2024-03-17T03:30:05;9.52;;;3.67;;
82372;SDS011;72000;42.828;23.382;2024-03-17T03:32:33;7.07;;;3.20;;
82372;SDS011;72000;42.828;23.382;2024-03-17T03:34:59;6.78;;;3.20;;
82372;SDS011;72000;42.828;23.382;2024-03-17T03:37:25;7.93;;;3.30;;
82372;SDS011;72000;42.828;23.382;2024-03-17T03:39:51;7.28;;;3.50;;
82372;SDS011;72000;42.828;23.382;2024-03-17T03:42:16;8.38;;;3.38;;
82372;SDS011;72000;42.828;23.382;2024-03-17T03:44:42;6.30;;;3.05;;
82372;SDS011;72000;42.828;23.382;2024-03-17T03:47:08;7.72;;;3.50;;
82372;SDS011;72000;42.828;23.382;2024-03-17T03:49:34;7.28;;;3.50;;
82372;SDS011;72000;42.828;23.382;2024-03-17T03:51:59;6.40;;;3.17;;
82372;SDS011;72000;42.828;23.382;2024-03-17T03:54:25;7.40;;;3.10;;
82372;SDS011;72000;42.828;23.382;2024-03-17T03:56:50;7.07;;;3.25;;
82372;SDS011;72000;42.828;23.382;2024-03-17T03:59:16;7.38;;;3.30;;
82372;SDS011;72000;42.828;23.382;2024-03-17T04:01:41;5.82;;;3.05;;
82372;SDS011;72000;42.828;23.382;2024-03-17T04:04:07;7.60;;;3.63;;
82372;SDS011;72000;42.828;23.382;2024-03-17T04:06:32;9.07;;;3.58;;
82372;SDS011;72000;42.828;23.382;2024-03-17T04:08:58;7.93;;;3.30;;
82372;SDS011;72000;42.828;23.382;2024-03-17T04:11:23;6.95;;;3.25;;
82372;SDS011;72000;42.828;23.382;2024-03-17T04:13:49;7.35;;;3.40;;
82372;SDS011;72000;42.828;23.382;2024-03-17T04:16:14;7.45;;;3.03;;
82372;SDS011;72000;42.828;23.382;2024-03-17T04:18:40;7.15;;;3.20;;
82372;SDS011;72000;42.828;23.382;2024-03-17T04:21:06;7.80;;;3.70;;
82372;SDS011;72000;42.828;23.382;2024-03-17T04:23:32;7.53;;;3.15;;
82372;SDS011;72000;42.828;23.382;2024-03-17T04:25:58;7.35;;;3.10;;
82372;SDS011;72000;42.828;23.382;2024-03-17T04:28:24;6.90;;;3.38;;
82372;SDS011;72000;42.828;23.382;2024-03-17T04:30:50;6.38;;;3.40;;
82372;SDS011;72000;42.828;23.382;2024-03-17T04:33:15;7.22;;;3.58;;
82372;SDS011;72000;42.828;23.382;2024-03-17T04:35:44;7.55;;;3.60;;
82372;SDS011;72000;42.828;23.382;2024-03-17T04:38:09;8.10;;;3.42;;
82372;SDS011;72000;42.828;23.382;2024-03-17T04:40:41;9.02;;;3.30;;
82372;SDS011;72000;42.828;23.382;2024-03-17T04:43:07;7.57;;;3.47;;
82372;SDS011;72000;42.828;23.382;2024-03-17T04:45:33;9.55;;;3.58;;
82372;SDS011;72000;42.828;23.382;2024-03-17T04:47:58;8.88;;;4.18;;
82372;SDS011;72000;42.828;23.382;2024-03-17T04:50:24;7.70;;;3.72;;
82372;SDS011;72000;42.828;23.382;2024-03-17T04:52:51;7.57;;;3.70;;
82372;SDS011;72000;42.828;23.382;2024-03-17T04:55:17;8.73;;;3.80;;
82372;SDS011;72000;42.828;23.382;2024-03-17T04:57:44;8.57;;;3.47;;
82372;SDS011;72000;42.828;23.382;2024-03-17T05:00:12;9.50;;;3.67;;
82372;SDS011;72000;42.828;23.382;2024-03-17T05:05:04;9.70;;;3.90;;
82372;SDS011;72000;42.828;23.382;2024-03-17T05:07:32;7.30;;;3.38;;
82372;SDS011;72000;42.828;23.382;2024-03-17T05:09:57;10.00;;;3.92;;
82372;SDS011;72000;42.828;23.382;2024-03-17T05:12:23;10.48;;;4.00;;
82372;SDS011;72000;42.828;23.382;2024-03-17T05:14:48;8.30;;;3.70;;
82372;SDS011;72000;42.828;23.382;2024-03-17T05:17:14;9.25;;;3.63;;
82372;SDS011;72000;42.828;23.382;2024-03-17T05:19:39;11.25;;;3.40;;
82372;SDS011;72000;42.828;23.382;2024-03-17T05:22:05;8.10;;;3.63;;
82372;SDS011;72000;42.828;23.382;2024-03-17T05:24:31;8.75;;;3.88;;
82372;SDS011;72000;42.828;23.382;2024-03-17T05:26:56;8.38;;;3.92;;
82372;SDS011;72000;42.828;23.382;2024-03-17T05:29:22;9.40;;;4.20;;
82372;SDS011;72000;42.828;23.382;2024-03-17T05:31:48;10.30;;;5.10;;
82372;SDS011;72000;42.828;23.382;2024-03-17T05:34:14;11.05;;;5.30;;
82372;SDS011;72000;42.828;23.382;2024-03-17T05:36:39;10.65;;;4.75;;
82372;SDS011;72000;42.828;23.382;2024-03-17T05:39:05;10.65;;;4.78;;
82372;SDS011;72000;42.828;23.382;2024-03-17T05:41:30;9.38;;;4.50;;
82372;SDS011;72000;42.828;23.382;2024-03-17T05:43:55;10.25;;;4.78;;
82372;SDS011;72000;42.828;23.382;2024-03-17T05:46:25;12.25;;;4.85;;
82372;SDS011;72000;42.828;23.382;2024-03-17T05:48:52;10.20;;;4.80;;
82372;SDS011;72000;42.828;23.382;2024-03-17T05:51:17;11.65;;;5.15;;
82372;SDS011;72000;42.828;23.382;2024-03-17T05:53:43;12.65;;;5.20;;
82372;SDS011;72000;42.828;23.382;2024-03-17T05:56:11;11.82;;;5.07;;
82372;SDS011;72000;42.828;23.382;2024-03-17T05:58:40;11.07;;;4.85;;
82372;SDS011;72000;42.828;23.382;2024-03-17T06:01:06;9.77;;;5.03;;
82372;SDS011;72000;42.828;23.382;2024-03-17T06:03:36;11.93;;;5.82;;
82372;SDS011;72000;42.828;23.382;2024-03-17T06:06:02;11.85;;;5.25;;
82372;SDS011;72000;42.828;23.382;2024-03-17T06:10:54;10.95;;;5.28;;
82372;SDS011;72000;42.828;23.382;2024-03-17T06:13:22;9.93;;;4.75;;
82372;SDS011;72000;42.828;23.382;2024-03-17T06:15:48;11.23;;;4.88;;
82372;SDS011;72000;42.828;23.382;2024-03-17T06:18:14;11.00;;;4.80;;
82372;SDS011;72000;42.828;23.382;2024-03-17T06:20:44;10.77;;;4.57;;
82372;SDS011;72000;42.828;23.382;2024-03-17T06:23:10;10.57;;;4.72;;
82372;SDS011;72000;42.828;23.382;2024-03-17T06:25:40;10.85;;;5.00;;
82372;SDS011;72000;42.828;23.382;2024-03-17T06:28:09;11.82;;;4.82;;
82372;SDS011;72000;42.828;23.382;2024-03-17T06:30:39;12.10;;;4.93;;
82372;SDS011;72000;42.828;23.382;2024-03-17T06:33:12;14.98;;;6.32;;
82372;SDS011;72000;42.828;23.382;2024-03-17T06:35:39;12.95;;;6.13;;
82372;SDS011;72000;42.828;23.382;2024-03-17T06:38:04;12.90;;;5.97;;
82372;SDS011;72000;42.828;23.382;2024-03-17T06:40:30;16.50;;;6.53;;
82372;SDS011;72000;42.828;23.382;2024-03-17T06:42:56;13.73;;;6.38;;
82372;SDS011;72000;42.828;23.382;2024-03-17T06:45:22;17.63;;;7.57;;
82372;SDS011;72000;42.828;23.382;2024-03-17T06:47:48;17.88;;;8.10;;
82372;SDS011;72000;42.828;23.382;2024-03-17T06:50:13;19.85;;;8.20;;
82372;SDS011;72000;42.828;23.382;2024-03-17T06:52:39;18.75;;;8.02;;
82372;SDS011;72000;42.828;23.382;2024-03-17T06:55:05;17.98;;;7.97;;
82372;SDS011;72000;42.828;23.382;2024-03-17T06:59:58;16.33;;;6.78;;
82372;SDS011;72000;42.828;23.382;2024-03-17T07:02:24;19.75;;;7.90;;
82372;SDS011;72000;42.828;23.382;2024-03-17T07:04:50;22.90;;;8.30;;
82372;SDS011;72000;42.828;23.382;2024-03-17T07:07:16;16.50;;;7.57;;
82372;SDS011;72000;42.828;23.382;2024-03-17T07:09:41;15.23;;;7.63;;
82372;SDS011;72000;42.828;23.382;2024-03-17T07:12:10;16.02;;;7.30;;
82372;SDS011;72000;42.828;23.382;2024-03-17T07:14:36;13.85;;;6.60;;
82372;SDS011;72000;42.828;23.382;2024-03-17T07:17:02;15.50;;;6.85;;
82372;SDS011;72000;42.828;23.382;2024-03-17T07:19:28;15.27;;;6.82;;
82372;SDS011;72000;42.828;23.382;2024-03-17T07:21:54;13.68;;;6.55;;
82372;SDS011;72000;42.828;23.382;2024-03-17T07:24:20;13.40;;;5.95;;
82372;SDS011;72000;42.828;23.382;2024-03-17T07:26:47;15.73;;;6.78;;
82372;SDS011;72000;42.828;23.382;2024-03-17T07:29:14;16.13;;;7.53;;
82372;SDS011;72000;42.828;23.382;2024-03-17T07:31:40;19.20;;;7.07;;
82372;SDS011;72000;42.828;23.382;2024-03-17T07:34:06;13.80;;;7.07;;
82372;SDS011;72000;42.828;23.382;2024-03-17T07:36:31;13.70;;;6.53;;
82372;SDS011;72000;42.828;23.382;2024-03-17T07:38:57;15.50;;;7.20;;
82372;SDS011;72000;42.828;23.382;2024-03-17T07:41:23;13.65;;;7.20;;
82372;SDS011;72000;42.828;23.382;2024-03-17T07:43:49;16.00;;;8.00;;
82372;SDS011;72000;42.828;23.382;2024-03-17T07:46:15;15.55;;;7.57;;
82372;SDS011;72000;42.828;23.382;2024-03-17T07:48:41;15.68;;;7.50;;
82372;SDS011;72000;42.828;23.382;2024-03-17T07:51:09;15.73;;;7.25;;
82372;SDS011;72000;42.828;23.382;2024-03-17T07:53:36;17.58;;;8.93;;
82372;SDS011;72000;42.828;23.382;2024-03-17T07:56:06;17.15;;;8.75;;
82372;SDS011;72000;42.828;23.382;2024-03-17T07:58:34;16.35;;;8.18;;
82372;SDS011;72000;42.828;23.382;2024-03-17T08:01:11;14.98;;;7.55;;
82372;SDS011;72000;42.828;23.382;2024-03-17T08:03:37;16.13;;;8.07;;
82372;SDS011;72000;42.828;23.382;2024-03-17T08:06:05;15.43;;;7.22;;
82372;SDS011;72000;42.828;23.382;2024-03-17T08:08:32;14.63;;;7.53;;
82372;SDS011;72000;42.828;23.382;2024-03-17T08:10:58;13.25;;;6.05;;
82372;SDS011;72000;42.828;23.382;2024-03-17T08:13:24;12.43;;;5.80;;
82372;SDS011;72000;42.828;23.382;2024-03-17T08:15:59;12.30;;;6.35;;
82372;SDS011;72000;42.828;23.382;2024-03-17T08:18:28;13.45;;;5.80;;
82372;SDS011;72000;42.828;23.382;2024-03-17T08:20:54;13.10;;;6.18;;
82372;SDS011;72000;42.828;23.382;2024-03-17T08:23:20;13.50;;;5.93;;
82372;SDS011;72000;42.828;23.382;2024-03-17T08:25:53;11.57;;;5.78;;
82372;SDS011;72000;42.828;23.382;2024-03-17T08:30:55;13.13;;;6.65;;
82372;SDS011;72000;42.828;23.382;2024-03-17T08:33:27;15.25;;;7.28;;
82372;SDS011;72000;42.828;23.382;2024-03-17T08:38:30;15.45;;;7.75;;
82372;SDS011;72000;42.828;23.382;2024-03-17T08:40:57;17.70;;;7.90;;
82372;SDS011;72000;42.828;23.382;2024-03-17T08:43:23;15.07;;;7.43;;
82372;SDS011;72000;42.828;23.382;2024-03-17T08:45:59;15.98;;;6.95;;
82372;SDS011;72000;42.828;23.382;2024-03-17T08:48:29;15.82;;;7.07;;
82372;SDS011;72000;42.828;23.382;2024-03-17T08:50:56;14.13;;;7.00;;
82372;SDS011;72000;42.828;23.382;2024-03-17T08:53:22;13.02;;;7.15;;
82372;SDS011;72000;42.828;23.382;2024-03-17T08:55:48;14.68;;;7.75;;
82372;SDS011;72000;42.828;23.382;2024-03-17T08:58:14;12.85;;;6.30;;
82372;SDS011;72000;42.828;23.382;2024-03-17T09:00:40;14.05;;;6.78;;
82372;SDS011;72000;42.828;23.382;2024-03-17T09:03:06;13.50;;;6.47;;
82372;SDS011;72000;42.828;23.382;2024-03-17T09:05:35;11.45;;;5.95;;
82372;SDS011;72000;42.828;23.382;2024-03-17T09:10:27;13.38;;;5.68;;
82372;SDS011;72000;42.828;23.382;2024-03-17T09:12:53;11.75;;;5.93;;
82372;SDS011;72000;42.828;23.382;2024-03-17T09:17:45;12.10;;;5.97;;
82372;SDS011;72000;42.828;23.382;2024-03-17T09:20:12;12.27;;;4.75;;
82372;SDS011;72000;42.828;23.382;2024-03-17T09:22:42;11.88;;;5.53;;
82372;SDS011;72000;42.828;23.382;2024-03-17T09:25:08;11.07;;;5.20;;
82372;SDS011;72000;42.828;23.382;2024-03-17T09:27:34;10.82;;;5.30;;
82372;SDS011;72000;42.828;23.382;2024-03-17T09:30:06;9.60;;;4.82;;
82372;SDS011;72000;42.828;23.382;2024-03-17T09:32:35;8.75;;;4.40;;
82372;SDS011;72000;42.828;23.382;2024-03-17T09:35:01;10.02;;;4.22;;
82372;SDS011;72000;42.828;23.382;2024-03-17T09:37:27;9.75;;;4.75;;
82372;SDS011;72000;42.828;23.382;2024-03-17T09:39:56;7.25;;;3.78;;
82372;SDS011;72000;42.828;23.382;2024-03-17T09:42:22;7.85;;;3.90;;
82372;SDS011;72000;42.828;23.382;2024-03-17T09:44:49;11.00;;;4.70;;
82372;SDS011;72000;42.828;23.382;2024-03-17T09:47:19;9.88;;;4.70;;
82372;SDS011;72000;42.828;23.382;2024-03-17T09:49:46;10.20;;;4.50;;
82372;SDS011;72000;42.828;23.382;2024-03-17T09:52:17;8.38;;;4.70;;
82372;SDS011;72000;42.828;23.382;2024-03-17T09:55:09;11.30;;;5.38;;
82372;SDS011;72000;42.828;23.382;2024-03-17T09:57:50;12.98;;;5.53;;
82372;SDS011;72000;42.828;23.382;2024-03-17T10:00:16;9.57;;;4.68;;
82372;SDS011;72000;42.828;23.382;2024-03-17T10:02:45;10.80;;;5.07;;
82372;SDS011;72000;42.828;23.382;2024-03-17T10:05:18;10.07;;;4.57;;
82372;SDS011;72000;42.828;23.382;2024-03-17T10:07:48;10.65;;;4.85;;
82372;SDS011;72000;42.828;23.382;2024-03-17T10:10:15;9.02;;;4.75;;
82372;SDS011;72000;42.828;23.382;2024-03-17T10:12:44;10.23;;;5.13;;
82372;SDS011;72000;42.828;23.382;2024-03-17T10:15:14;9.77;;;4.50;;
82372;SDS011;72000;42.828;23.382;2024-03-17T10:17:40;9.00;;;4.63;;
82372;SDS011;72000;42.828;23.382;2024-03-17T10:23:04;8.10;;;4.30;;
82372;SDS011;72000;42.828;23.382;2024-03-17T10:25:31;10.40;;;4.60;;
82372;SDS011;72000;42.828;23.382;2024-03-17T10:27:58;8.95;;;4.38;;
82372;SDS011;72000;42.828;23.382;2024-03-17T10:30:24;8.90;;;4.47;;
82372;SDS011;72000;42.828;23.382;2024-03-17T10:35:26;8.00;;;4.60;;
82372;SDS011;72000;42.828;23.382;2024-03-17T10:37:53;8.45;;;4.07;;
82372;SDS011;72000;42.828;23.382;2024-03-17T10:40:24;9.52;;;4.30;;
82372;SDS011;72000;42.828;23.382;2024-03-17T10:42:51;9.20;;;4.43;;
82372;SDS011;72000;42.828;23.382;2024-03-17T10:45:17;11.07;;;5.40;;
82372;SDS011;72000;42.828;23.382;2024-03-17T10:47:49;9.20;;;4.82;;
82372;SDS011;72000;42.828;23.382;2024-03-17T10:52:45;10.50;;;5.18;;
82372;SDS011;72000;42.828;23.382;2024-03-17T10:55:20;9.40;;;4.55;;
82372;SDS011;72000;42.828;23.382;2024-03-17T10:57:47;10.60;;;5.70;;
82372;SDS011;72000;42.828;23.382;2024-03-17T11:00:15;11.63;;;5.82;;
82372;SDS011;72000;42.828;23.382;2024-03-17T11:02:47;11.10;;;5.07;;
82372;SDS011;72000;42.828;23.382;2024-03-17T11:05:15;8.65;;;4.50;;
82372;SDS011;72000;42.828;23.382;2024-03-17T11:07:49;9.43;;;4.75;;
82372;SDS011;72000;42.828;23.382;2024-03-17T11:10:19;8.55;;;4.35;;
82372;SDS011;72000;42.828;23.382;2024-03-17T11:12:59;8.45;;;4.72;;
82372;SDS011;72000;42.828;23.382;2024-03-17T11:20:33;8.15;;;4.30;;
82372;SDS011;72000;42.828;23.382;2024-03-17T11:23:03;9.07;;;4.63;;
82372;SDS011;72000;42.828;23.382;2024-03-17T11:28:05;6.55;;;3.72;;
82372;SDS011;72000;42.828;23.382;2024-03-17T11:38:51;8.18;;;3.38;;
82372;SDS011;72000;42.828;23.382;2024-03-17T11:44:12;7.47;;;3.60;;
82372;SDS011;72000;42.828;23.382;2024-03-17T11:47:01;6.43;;;3.25;;
82372;SDS011;72000;42.828;23.382;2024-03-17T11:49:32;6.55;;;3.33;;
82372;SDS011;72000;42.828;23.382;2024-03-17T11:52:08;6.53;;;3.30;;
82372;SDS011;72000;42.828;23.382;2024-03-17T11:54:37;6.57;;;3.40;;
82372;SDS011;72000;42.828;23.382;2024-03-17T11:57:05;7.05;;;3.58;;
82372;SDS011;72000;42.828;23.382;2024-03-17T11:59:32;8.48;;;4.00;;
82372;SDS011;72000;42.828;23.382;2024-03-17T12:04:24;7.05;;;3.75;;
82372;SDS011;72000;42.828;23.382;2024-03-17T12:06:51;6.53;;;3.65;;
82372;SDS011;72000;42.828;23.382;2024-03-17T12:09:21;6.47;;;3.20;;
82372;SDS011;72000;42.828;23.382;2024-03-17T12:11:58;7.47;;;3.40;;
82372;SDS011;72000;42.828;23.382;2024-03-17T12:14:32;7.45;;;3.20;;
82372;SDS011;72000;42.828;23.382;2024-03-17T12:17:40;7.30;;;3.28;;
82372;SDS011;72000;42.828;23.382;2024-03-17T12:19:48;5.28;;;3.08;;
82372;SDS011;72000;42.828;23.382;2024-03-17T12:22:17;6.72;;;3.20;;
82372;SDS011;72000;42.828;23.382;2024-03-17T12:24:47;7.30;;;3.17;;
82372;SDS011;72000;42.828;23.382;2024-03-17T12:27:20;6.70;;;3.00;;
82372;SDS011;72000;42.828;23.382;2024-03-17T12:29:50;6.72;;;3.30;;
82372;SDS011;72000;42.828;23.382;2024-03-17T12:32:18;6.30;;;3.25;;
82372;SDS011;72000;42.828;23.382;2024-03-17T12:34:45;5.97;;;3.13;;
82372;SDS011;72000;42.828;23.382;2024-03-17T12:37:16;6.22;;;3.15;;
82372;SDS011;72000;42.828;23.382;2024-03-17T12:39:43;7.53;;;3.22;;
82372;SDS011;72000;42.828;23.382;2024-03-17T12:42:09;6.72;;;3.20;;
82372;SDS011;72000;42.828;23.382;2024-03-17T12:44:38;6.35;;;3.50;;
82372;SDS011;72000;42.828;23.382;2024-03-17T12:47:17;6.07;;;3.47;;
82372;SDS011;72000;42.828;23.382;2024-03-17T12:49:48;6.38;;;3.15;;
82372;SDS011;72000;42.828;23.382;2024-03-17T12:52:21;6.93;;;3.28;;
82372;SDS011;72000;42.828;23.382;2024-03-17T12:55:00;6.18;;;3.25;;
82372;SDS011;72000;42.828;23.382;2024-03-17T12:57:52;7.53;;;3.38;;
82372;SDS011;72000;42.828;23.382;2024-03-17T13:00:57;6.75;;;3.47;;
82372;SDS011;72000;42.828;23.382;2024-03-17T13:03:33;7.03;;;3.80;;
82372;SDS011;72000;42.828;23.382;2024-03-17T13:05:59;6.95;;;3.50;;
82372;SDS011;72000;42.828;23.382;2024-03-17T13:08:27;8.23;;;3.45;;
82372;SDS011;72000;42.828;23.382;2024-03-17T13:10:53;7.32;;;3.90;;
82372;SDS011;72000;42.828;23.382;2024-03-17T13:13:19;8.77;;;4.47;;
82372;SDS011;72000;42.828;23.382;2024-03-17T13:15:44;7.28;;;3.83;;
82372;SDS011;72000;42.828;23.382;2024-03-17T13:18:18;7.32;;;3.63;;
82372;SDS011;72000;42.828;23.382;2024-03-17T13:20:45;6.28;;;3.40;;
82372;SDS011;72000;42.828;23.382;2024-03-17T13:23:19;6.60;;;3.40;;
82372;SDS011;72000;42.828;23.382;2024-03-17T13:25:46;6.70;;;3.40;;
82372;SDS011;72000;42.828;23.382;2024-03-17T13:28:13;6.68;;;3.47;;
82372;SDS011;72000;42.828;23.382;2024-03-17T13:30:38;7.35;;;3.33;;
82372;SDS011;72000;42.828;23.382;2024-03-17T13:35:34;6.38;;;3.40;;
82372;SDS011;72000;42.828;23.382;2024-03-17T13:38:03;5.78;;;3.08;;
82372;SDS011;72000;42.828;23.382;2024-03-17T13:40:29;7.00;;;3.50;;
82372;SDS011;72000;42.828;23.382;2024-03-17T13:42:55;10.07;;;4.55;;
82372;SDS011;72000;42.828;23.382;2024-03-17T13:45:23;8.23;;;3.90;;
82372;SDS011;72000;42.828;23.382;2024-03-17T13:50:17;6.57;;;3.15;;
82372;SDS011;72000;42.828;23.382;2024-03-17T13:55:13;7.47;;;3.65;;
82372;SDS011;72000;42.828;23.382;2024-03-17T13:57:42;6.50;;;3.20;;
82372;SDS011;72000;42.828;23.382;2024-03-17T14:00:09;7.63;;;3.33;;
82372;SDS011;72000;42.828;23.382;2024-03-17T14:05:01;8.20;;;4.38;;
82372;SDS011;72000;42.828;23.382;2024-03-17T14:07:27;7.05;;;3.72;;
82372;SDS011;72000;42.828;23.382;2024-03-17T14:09:53;7.70;;;3.55;;
82372;SDS011;72000;42.828;23.382;2024-03-17T14:12:19;7.35;;;3.75;;
82372;SDS011;72000;42.828;23.382;2024-03-17T14:14:44;7.03;;;3.70;;
82372;SDS011;72000;42.828;23.382;2024-03-17T14:17:10;6.70;;;3.33;;
82372;SDS011;72000;42.828;23.382;2024-03-17T14:19:36;7.75;;;3.53;;
82372;SDS011;72000;42.828;23.382;2024-03-17T14:22:02;6.18;;;3.35;;
82372;SDS011;72000;42.828;23.382;2024-03-17T14:24:27;6.80;;;3.60;;
82372;SDS011;72000;42.828;23.382;2024-03-17T14:29:19;8.10;;;4.05;;
82372;SDS011;72000;42.828;23.382;2024-03-17T14:31:44;6.97;;;3.65;;
82372;SDS011;72000;42.828;23.382;2024-03-17T14:34:10;10.13;;;4.45;;
82372;SDS011;72000;42.828;23.382;2024-03-17T14:36:36;7.53;;;3.95;;
82372;SDS011;72000;42.828;23.382;2024-03-17T14:39:02;7.30;;;4.00;;
82372;SDS011;72000;42.828;23.382;2024-03-17T14:41:31;8.40;;;4.10;;
82372;SDS011;72000;42.828;23.382;2024-03-17T14:43:57;8.82;;;4.13;;
82372;SDS011;72000;42.828;23.382;2024-03-17T14:46:26;7.63;;;3.63;;
82372;SDS011;72000;42.828;23.382;2024-03-17T14:48:52;7.35;;;4.20;;
82372;SDS011;72000;42.828;23.382;2024-03-17T14:51:18;6.47;;;3.60;;
82372;SDS011;72000;42.828;23.382;2024-03-17T14:53:46;6.22;;;3.22;;
82372;SDS011;72000;42.828;23.382;2024-03-17T14:56:17;6.28;;;3.40;;
82372;SDS011;72000;42.828;23.382;2024-03-17T14:58:44;8.00;;;4.40;;
82372;SDS011;72000;42.828;23.382;2024-03-17T15:01:11;9.55;;;5.00;;
82372;SDS011;72000;42.828;23.382;2024-03-17T15:03:37;16.33;;;7.50;;
82372;SDS011;72000;42.828;23.382;2024-03-17T15:06:09;13.43;;;6.70;;
82372;SDS011;72000;42.828;23.382;2024-03-17T15:08:36;27.08;;;11.10;;
82372;SDS011;72000;42.828;23.382;2024-03-17T15:11:02;17.40;;;8.10;;
82372;SDS011;72000;42.828;23.382;2024-03-17T15:13:28;14.23;;;6.38;;
82372;SDS011;72000;42.828;23.382;2024-03-17T15:15:54;8.05;;;4.07;;
82372;SDS011;72000;42.828;23.382;2024-03-17T15:18:22;9.63;;;4.28;;
82372;SDS011;72000;42.828;23.382;2024-03-17T15:20:51;7.80;;;3.85;;
82372;SDS011;72000;42.828;23.382;2024-03-17T15:23:18;8.20;;;4.30;;
82372;SDS011;72000;42.828;23.382;2024-03-17T15:25:44;8.57;;;4.82;;
82372;SDS011;72000;42.828;23.382;2024-03-17T15:28:09;9.00;;;4.70;;
82372;SDS011;72000;42.828;23.382;2024-03-17T15:30:37;9.63;;;5.05;;
82372;SDS011;72000;42.828;23.382;2024-03-17T15:33:03;10.52;;;5.18;;
82372;SDS011;72000;42.828;23.382;2024-03-17T15:35:28;9.82;;;4.93;;